FW5298 Popricani RO current weather conditions

sailwx.info

Wind from 157 at 5 knots gusting 10

Air temperature 17.8° C
Dewpoint 9.9° C

Last reported at 2020-Aug-04 01:05 UTC.
Time now 2020-Aug-04 02:00 UTC

Location: N 47°17' E 027°31'.
View on Google Maps.

See reports from other nearby stations

  
Tides and Currents Weather Stations Pressure Air Temp Water Temp Dewpoint Dewpoint Depression Visibility Wind Speed Wind Dir Waves Ship Positions
date/time (UTC)wind fromknots sea level pressurealtimeterstation pressurevisibilityair tempwater tempwave heightnotes
2020-Aug-04 01:05 157 5 gusting 10 17.8
2020-Aug-04 00:55 149 5 gusting 9 18.3
2020-Aug-04 00:45 149 6 gusting 11 18.3
2020-Aug-04 00:35 143 3 gusting 6 18.3
2020-Aug-04 00:25 145 4 gusting 10 18.3
2020-Aug-04 00:15 156 4 gusting 11 18.3
2020-Aug-04 00:05 155 5 gusting 10 18.3
2020-Aug-03 23:55 155 5 gusting 10 18.3
2020-Aug-03 23:45 153 4 gusting 10 18.3
2020-Aug-03 23:35 145 5 gusting 8 18.9
2020-Aug-03 23:25 150 3 gusting 7 18.9
2020-Aug-03 23:20 150 5 gusting 11 18.9
2020-Aug-03 23:10 150 5 gusting 9 18.9
2020-Aug-03 22:59 152 4 gusting 9 19.4
2020-Aug-03 22:49 153 6 gusting 10 19.4
2020-Aug-03 22:39 150 4 gusting 9 19.4
2020-Aug-03 22:29 150 4 gusting 9 19.4
2020-Aug-03 22:19 157 6 gusting 11 20.0
2020-Aug-03 22:09 157 6 gusting 11 20.0
2020-Aug-03 21:59 159 6 gusting 8 20.0
2020-Aug-03 21:49 154 6 gusting 9 20.0
2020-Aug-03 21:39 152 6 gusting 13 20.0
2020-Aug-03 21:29 151 5 gusting 10 20.0
2020-Aug-03 21:19 151 5 gusting 10 20.0
2020-Aug-03 21:09 148 6 gusting 13 20.0
2020-Aug-03 20:59 147 6 gusting 12 20.0
2020-Aug-03 20:49 148 5 gusting 12 20.6
2020-Aug-03 20:39 145 3 gusting 6 20.6
2020-Aug-03 20:29 146 3 gusting 6 20.6
2020-Aug-03 20:19 140 3 gusting 10 21.1
2020-Aug-03 20:09 145 4 gusting 7 21.7
2020-Aug-03 19:59 145 2 gusting 6 21.7
2020-Aug-03 19:49 145 3 gusting 6 22.2
2020-Aug-03 19:39 148 3 gusting 6 22.2
2020-Aug-03 19:29 149 3 gusting 6 22.2
2020-Aug-03 19:19 144 3 gusting 6 22.8
2020-Aug-03 19:09 144 3 gusting 6 22.8
2020-Aug-03 18:59 144 3 gusting 6 22.8
2020-Aug-03 18:49 144 2 gusting 6 23.3
2020-Aug-03 18:39 147 3 gusting 6 23.3
2020-Aug-03 18:29 146 3 gusting 6 23.3
2020-Aug-03 18:19 148 2 gusting 6 23.9
2020-Aug-03 18:09 153 3 gusting 6 24.4
2020-Aug-03 17:59 146 3 gusting 6 24.4
2020-Aug-03 17:48 148 2 gusting 6 25.0
2020-Aug-03 17:38 145 3 gusting 6 25.6
2020-Aug-03 17:28 143 3 gusting 6 26.1
2020-Aug-03 17:18 148 1 gusting 3 26.1
2020-Aug-03 17:08 146 3 gusting 6 26.7
2020-Aug-03 16:58 146 3 gusting 6 26.7
2020-Aug-03 16:48 152 4 gusting 7 27.2
2020-Aug-03 16:38 151 3 gusting 10 27.8
2020-Aug-03 16:28 151 3 gusting 7 27.8
2020-Aug-03 16:18 150 3 gusting 7 27.8
2020-Aug-03 16:08 153 3 gusting 7 28.3
2020-Aug-03 15:58 146 4 gusting 8 28.3
2020-Aug-03 15:48 149 3 gusting 8 28.3
2020-Aug-03 15:38 150 5 gusting 8 28.3
2020-Aug-03 15:28 151 5 gusting 10 28.9
2020-Aug-03 15:18 152 4 gusting 8 28.9
2020-Aug-03 15:08 153 3 gusting 8 29.4
2020-Aug-03 14:58 150 3 gusting 10 29.4
2020-Aug-03 14:48 149 6 gusting 11 29.4
2020-Aug-03 14:38 151 3 gusting 6 29.4
2020-Aug-03 14:28 163 3 gusting 9 30.0
2020-Aug-03 14:18 168 3 gusting 7 30.0
2020-Aug-03 14:08 161 4 gusting 17 30.0
2020-Aug-03 13:58 191 1 gusting 7 30.0
2020-Aug-03 13:48 170 3 gusting 7 30.6
2020-Aug-03 13:38 151 4 gusting 8 30.0
2020-Aug-03 13:28 171 4 gusting 8 30.0
2020-Aug-03 13:18 147 3 gusting 7 30.0
2020-Aug-03 13:08 147 4 gusting 8 30.6
2020-Aug-03 12:57 184 4 gusting 12 30.6
2020-Aug-03 12:47 146 6 gusting 13 30.0
2020-Aug-03 12:37 157 6 gusting 12 30.6
2020-Aug-03 12:27 147 3 gusting 11 31.1
2020-Aug-03 12:17 175 3 gusting 8 31.1
2020-Aug-03 12:07 154 3 gusting 10 31.1
2020-Aug-03 11:57 183 3 gusting 7 31.1
2020-Aug-03 11:47 180 4 gusting 10 30.6
2020-Aug-03 11:37 180 4 gusting 10 30.6
2020-Aug-03 11:27 180 3 gusting 9 30.6
2020-Aug-03 11:17 163 4 gusting 14 30.6
2020-Aug-03 11:07 172 3 gusting 7 30.6
2020-Aug-03 10:57 164 2 gusting 6 30.0
2020-Aug-03 10:47 149 4 gusting 9 30.0
2020-Aug-03 10:37 148 4 gusting 13 30.0
2020-Aug-03 10:27 160 2 gusting 6 29.4
2020-Aug-03 10:17 149 3 gusting 12 29.4
2020-Aug-03 10:07 162 3 gusting 9 29.4
2020-Aug-03 09:57 142 2 gusting 7 28.3
2020-Aug-03 09:47 142 2 gusting 7 28.3
2020-Aug-03 09:37 153 4 gusting 13 28.3
2020-Aug-03 09:27 165 5 gusting 10 27.8
2020-Aug-03 09:17 161 2 gusting 5 27.8
2020-Aug-03 09:07 162 3 gusting 7 27.8
2020-Aug-03 08:57 151 4 gusting 8 27.2
2020-Aug-03 08:47 151 4 gusting 10 27.2
2020-Aug-03 08:37 168 2 gusting 7 26.7
2020-Aug-03 08:27 153 4 gusting 8 26.1
2020-Aug-03 08:17 155 3 gusting 7 25.6
2020-Aug-03 08:07 151 4 gusting 7 25.6
2020-Aug-03 07:56 154 5 gusting 10 25.0
2020-Aug-03 07:46 148 3 gusting 7 25.0
2020-Aug-03 07:36 155 3 gusting 6 24.4
2020-Aug-03 07:26 155 3 gusting 6 24.4
2020-Aug-03 07:16 140 3 gusting 6 23.9
2020-Aug-03 07:06 155 3 gusting 7 23.3
2020-Aug-03 06:56 147 3 gusting 7 22.8
2020-Aug-03 06:46 149 3 gusting 6 22.2
2020-Aug-03 06:36 151 3 gusting 6 21.7
2020-Aug-03 06:26 149 3 gusting 7 21.1
2020-Aug-03 06:16 149 3 gusting 9 20.6
2020-Aug-03 06:06 145 2 gusting 5 19.4
2020-Aug-03 05:56 141 1 gusting 3 18.9
2020-Aug-03 05:46 142 1 gusting 5 18.9
2020-Aug-03 05:36 147 1 gusting 3 18.9
2020-Aug-03 05:26 143 3 gusting 7 18.3
2020-Aug-03 05:16 140 2 gusting 5 17.8
2020-Aug-03 05:06 140 1 gusting 3 17.2
2020-Aug-03 04:56 143 1 gusting 4 16.7
2020-Aug-03 04:46 141 1 gusting 3 16.1
2020-Aug-03 04:36 116 0 gusting 3 15.6
2020-Aug-03 04:26 090 1 gusting 3 15.0
2020-Aug-03 04:16 090 0 gusting 1 14.4
2020-Aug-03 04:06 123 0 gusting 1 13.9
2020-Aug-03 03:56 090 0 gusting 1 13.9
2020-Aug-03 03:46 090 0 gusting 1 13.9
2020-Aug-03 03:36 090 0 gusting 2 13.3
2020-Aug-03 03:26 090 0 gusting 2 13.3
2020-Aug-03 03:16 090 0 gusting 2 13.3
2020-Aug-03 03:06 090 0 gusting 2 13.9
2020-Aug-03 02:55 090 0 gusting 3 13.9
2020-Aug-03 02:45 090 0 gusting 2 13.9
2020-Aug-03 02:35 090 0 gusting 3 13.9
2020-Aug-03 02:25 090 0 gusting 2 13.9
2020-Aug-03 02:15 090 0 gusting 1 13.9
2020-Aug-03 02:05 090 0 gusting 2 13.9
2020-Aug-03 01:55 090 0 gusting 2 13.9
2020-Aug-03 01:45 090 0 gusting 2 13.9
2020-Aug-03 01:35 090 0 gusting 2 13.9
2020-Aug-03 01:25 090 0 gusting 2 13.9
2020-Aug-03 01:15 090 0 gusting 3 13.9
2020-Aug-03 01:05 090 0 gusting 2 13.9
2020-Aug-03 00:55 090 0 gusting 2 13.9
2020-Aug-03 00:45 090 0 gusting 1 14.4
2020-Aug-03 00:35 090 0 gusting 1 14.4
2020-Aug-03 00:25 090 0 gusting 2 14.4
2020-Aug-03 00:15 090 0 gusting 2 14.4
2020-Aug-03 00:05 090 0 gusting 1 14.4
2020-Aug-02 23:55 090 0 gusting 1 15.0
2020-Aug-02 23:45 090 0 gusting 1 15.0
2020-Aug-02 23:35 073 0 gusting 2 15.0
2020-Aug-02 23:25 053 1 gusting 3 15.0
2020-Aug-02 23:15 053 2 gusting 3 15.0
2020-Aug-02 23:05 059 1 gusting 3 15.0
2020-Aug-02 22:55 057 1 gusting 3 15.6
2020-Aug-02 22:45 059 2 gusting 3 15.0
2020-Aug-02 22:35 060 1 gusting 2 15.0
2020-Aug-02 22:25 090 0 gusting 1 15.6
2020-Aug-02 22:15 090 0 gusting 1 15.6
2020-Aug-02 22:05 090 0 gusting 1 15.6
2020-Aug-02 21:54 090 0 gusting 1 16.1
2020-Aug-02 21:44 124 0 gusting 1 16.1
2020-Aug-02 21:34 090 0 gusting 0 16.7
2020-Aug-02 21:24 129 0 gusting 0 16.7
2020-Aug-02 21:14 017 0 gusting 2 16.7
2020-Aug-02 21:04 030 1 gusting 3 17.2
2020-Aug-02 20:54 024 1 gusting 2 17.2
2020-Aug-02 20:44 028 1 gusting 3 17.2
2020-Aug-02 20:34 025 0 gusting 2 17.8
2020-Aug-02 20:24 040 0 gusting 2 17.8
2020-Aug-02 20:14 037 0 gusting 1 17.8
2020-Aug-02 20:04 056 0 gusting 1 17.8
2020-Aug-02 19:54 090 0 gusting 0 18.3
2020-Aug-02 19:44 090 0 gusting 0 18.3
2020-Aug-02 19:34 055 0 gusting 1 18.3
2020-Aug-02 19:24 025 0 gusting 2 18.9
2020-Aug-02 19:14 017 0 gusting 2 18.9
2020-Aug-02 19:04 023 1 gusting 3 19.4
2020-Aug-02 18:54 019 1 gusting 3 19.4
2020-Aug-02 18:44 021 0 gusting 2 20.0
2020-Aug-02 18:34 026 0 gusting 2 20.0
2020-Aug-02 18:24 022 1 gusting 3 20.6
2020-Aug-02 18:14 028 0 gusting 1 21.1
2020-Aug-02 18:04 022 0 gusting 1 21.7
2020-Aug-02 17:54 005 0 gusting 2 22.2
2020-Aug-02 17:44 003 0 gusting 1 22.8
2020-Aug-02 17:34 355 0 gusting 0 23.3
2020-Aug-02 17:24 343 0 gusting 2 23.9
2020-Aug-02 17:14 326 0 gusting 3 24.4
2020-Aug-02 17:04 322 0 gusting 3 24.4
2020-Aug-02 16:53 334 1 gusting 5 24.4
2020-Aug-02 16:43 339 1 gusting 4 25.0
2020-Aug-02 16:33 325 2 gusting 7 25.6
2020-Aug-02 16:23 318 1 gusting 6 25.6
2020-Aug-02 16:13 294 2 gusting 7 26.1
2020-Aug-02 16:03 287 3 gusting 7 26.1
2020-Aug-02 15:53 300 3 gusting 8 26.7
2020-Aug-02 15:43 292 3 gusting 6 26.7
2020-Aug-02 15:33 284 3 gusting 6 27.2
2020-Aug-02 15:23 308 1 gusting 6 27.2
2020-Aug-02 15:13 317 3 gusting 9 27.2
2020-Aug-02 15:04 323 3 gusting 6 27.2
2020-Aug-02 14:53 315 2 gusting 6 27.8
2020-Aug-02 14:43 306 3 gusting 7 27.8
2020-Aug-02 14:33 286 1 gusting 4 27.8
2020-Aug-02 14:23 293 2 gusting 5 27.8
2020-Aug-02 14:13 309 4 gusting 10 28.3
2020-Aug-02 14:03 280 3 gusting 8 28.9
2020-Aug-02 13:53 303 5 gusting 10 28.9
2020-Aug-02 13:43 263 3 gusting 9 28.9
2020-Aug-02 13:33 276 3 gusting 9 28.9
2020-Aug-02 13:23 292 3 gusting 7 28.9
2020-Aug-02 13:13 292 3 gusting 10 28.9
2020-Aug-02 13:03 317 3 gusting 7 28.9
2020-Aug-02 12:53 307 5 gusting 9 28.9
2020-Aug-02 12:43 315 3 gusting 9 28.9
2020-Aug-02 12:33 276 3 gusting 9 28.3
2020-Aug-02 12:23 270 2 gusting 6 28.3
2020-Aug-02 12:13 307 3 gusting 8 27.2
2020-Aug-02 12:03 334 3 gusting 7 27.8
2020-Aug-02 11:52 300 3 gusting 7 27.8
2020-Aug-02 11:42 312 3 gusting 9 28.3
2020-Aug-02 11:32 280 2 gusting 6 28.3
2020-Aug-02 11:22 313 3 gusting 8 28.3
2020-Aug-02 11:12 295 3 gusting 12 28.3
2020-Aug-02 11:02 293 5 gusting 10 27.8
2020-Aug-02 10:52 292 5 gusting 10 27.8
2020-Aug-02 10:42 299 3 gusting 10 27.8
2020-Aug-02 10:32 315 4 gusting 11 27.2
2020-Aug-02 10:22 317 4 gusting 10 27.2
2020-Aug-02 10:12 307 2 gusting 9 27.2
2020-Aug-02 10:02 295 3 gusting 7 26.7
2020-Aug-02 09:52 294 4 gusting 10 26.1
2020-Aug-02 09:42 296 3 gusting 9 26.1
2020-Aug-02 09:32 300 3 gusting 10 26.1
2020-Aug-02 09:22 297 5 gusting 13 25.6
2020-Aug-02 09:12 296 4 gusting 8 25.0
2020-Aug-02 09:02 328 6 gusting 13 25.0
2020-Aug-02 08:52 287 5 gusting 12 25.0
2020-Aug-02 08:42 310 3 gusting 15 24.4
2020-Aug-02 08:32 325 3 gusting 9 24.4
2020-Aug-02 08:22 284 3 gusting 9 24.4
2020-Aug-02 08:12 299 3 gusting 7 23.3
2020-Aug-02 08:02 312 3 gusting 7 23.3
2020-Aug-02 07:52 290 3 gusting 10 22.8
2020-Aug-02 07:42 298 4 gusting 12 22.2
2020-Aug-02 07:32 287 3 gusting 8 21.7
2020-Aug-02 07:22 300 3 gusting 7 21.1
2020-Aug-02 07:12 300 3 gusting 7 21.1
2020-Aug-02 07:02 304 3 gusting 7 20.0
2020-Aug-02 06:51 291 4 gusting 10 19.4
2020-Aug-02 06:41 300 4 gusting 13 18.9
2020-Aug-02 06:31 297 3 gusting 8 18.3
2020-Aug-02 06:21 295 4 gusting 9 18.3
2020-Aug-02 06:11 303 4 gusting 10 17.8
2020-Aug-02 06:01 303 4 gusting 10 17.8
2020-Aug-02 05:51 300 3 gusting 9 17.2
2020-Aug-02 05:41 309 3 gusting 10 17.2
2020-Aug-02 05:31 312 3 gusting 7 16.7
2020-Aug-02 05:21 302 3 gusting 6 15.0
2020-Aug-02 05:11 312 3 gusting 7 13.3
2020-Aug-02 05:01 310 3 gusting 9 12.8
2020-Aug-02 04:51 304 3 gusting 7 12.8
2020-Aug-02 04:41 304 4 gusting 8 12.8
2020-Aug-02 04:31 308 4 gusting 9 12.8
2020-Aug-02 04:21 299 3 gusting 7 12.2
2020-Aug-02 04:11 302 4 gusting 9 12.2
2020-Aug-02 04:01 297 3 gusting 7 12.2
2020-Aug-02 03:51 302 3 gusting 9 12.2
2020-Aug-02 03:41 301 3 gusting 6 12.2
2020-Aug-02 03:31 296 3 gusting 7 12.2
2020-Aug-02 03:21 303 2 gusting 6 12.2
2020-Aug-02 03:11 304 3 gusting 6 12.2
2020-Aug-02 03:01 309 2 gusting 7 12.2
2020-Aug-02 02:51 322 3 gusting 8 12.8
2020-Aug-02 02:41 322 3 gusting 8 12.8
2020-Aug-02 02:31 305 4 gusting 10 12.8
2020-Aug-02 02:21 308 4 gusting 10 12.8
2020-Aug-02 02:11 306 6 gusting 10 12.8
2020-Aug-02 02:01 300 4 gusting 8 12.8